Time;durP1;ratioP1;P1;durP2;ratioP2;P2;SDS_P1;SDS_P2;PMS_P1;PMS_P2;Temp;Humidity;BMP_temperature;BMP_pressure;BME280_temperature;BME280_humidity;BME280_pressure;Samples;Min_cycle;Max_cycle;Signal;HPM_P1;HPM_P2
2021/10/27 00:00:10;;;;;;;;;;;;;;;12.56;100.00;102051.69;4881449;29;19928;-45
2021/10/27 00:02:36;;;;;;;;;;;;;;;12.55;100.00;102048.19;4879830;29;20304;-47
2021/10/27 00:05:04;;;;;;;;;;;;;;;12.58;100.00;102060.34;4879090;29;19976;-44
2021/10/27 00:07:32;;;;;;;;;;;;;;;12.57;100.00;102056.88;4880552;29;19928;-46
2021/10/27 00:09:58;;;;;;;;;;;;;;;12.65;100.00;102056.44;4881169;29;20403;-46
2021/10/27 00:12:25;;;;;;;;;;;;;;;12.62;100.00;102059.25;4878085;29;19956;-44
2021/10/27 00:14:52;;;;;;;;;;;;;;;12.66;100.00;102066.06;4879372;29;19928;-46
2021/10/27 00:17:18;;;;;;;;;;;;;;;12.67;100.00;102067.78;4880033;29;20408;-47
2021/10/27 00:19:45;;;;;;;;;;;;;;;12.66;100.00;102061.63;4878255;29;20427;-47
2021/10/27 00:22:12;;;;;;;;;;;;;;;12.74;100.00;102066.50;4881501;29;19927;-47
2021/10/27 00:24:39;;;;;;;;;;;;;;;12.70;100.00;102067.59;4880169;29;19932;-45
2021/10/27 00:27:07;;;;;;;;;;;;;;;12.66;100.00;102061.63;4878040;29;19992;-43
2021/10/27 00:29:34;;;;;;;;;;;;;;;12.66;100.00;102066.06;4877359;29;19928;-46
2021/10/27 00:32:01;;;;;;;;;;;;;;;12.66;100.00;102066.91;4877732;29;19936;-46
2021/10/27 00:34:28;;;;;;;;;;;;;;;12.68;100.00;102069.50;4863926;29;20333;-45
2021/10/27 00:36:55;;;;;;;;;;;;;;;12.71;100.00;102057.88;4864312;29;19934;-56
2021/10/27 00:39:21;;;;;;;;;;;;;;;12.76;100.00;102055.84;4864386;29;19932;-55
2021/10/27 00:41:48;;;;;;;;;;;;;;;12.74;100.00;102060.38;4862650;29;19931;-55
2021/10/27 00:44:33;;;;;;;;;;;;;;;12.79;100.00;102068.91;4877928;29;19931;-53
2021/10/27 00:47:06;;;;;;;;;;;;;;;12.81;100.00;102059.94;4862652;29;19928;-55
2021/10/27 00:49:35;;;;;;;;;;;;;;;12.83;100.00;102065.16;4879480;29;19928;-52
2021/10/27 00:52:03;;;;;;;;;;;;;;;12.82;100.00;102066.09;4880730;29;20018;-54
2021/10/27 00:54:30;;;;;;;;;;;;;;;12.82;100.00;102058.16;4879520;29;20021;-53
2021/10/27 00:56:57;;;;;;;;;;;;;;;12.82;100.00;102064.28;4877681;29;20353;-54
2021/10/27 00:59:24;;;;;;;;;;;;;;;12.83;100.00;102062.53;4879293;29;20380;-45
2021/10/27 01:01:51;;;;;;;;;;;;;;;12.78;100.00;102056.63;4879116;29;20423;-45
2021/10/27 01:04:18;;;;;;;;;;;;;;;12.81;100.00;102059.09;4876812;29;20027;-48
2021/10/27 01:06:45;;;;;;;;;;;;;;;12.79;100.00;102059.19;4877751;29;19935;-47
2021/10/27 01:09:12;;;;;;;;;;;;;;;12.77;100.00;102065.47;4861055;29;19980;-55
2021/10/27 01:11:38;;;;;;;;;;;;;;;12.79;100.00;102055.72;4877673;29;19947;-54
2021/10/27 01:14:06;;;;;;;;;;;;;;;12.82;100.00;102055.53;4863169;29;19934;-54
2021/10/27 01:16:32;;;;;;;;;;;;;;;12.80;100.00;102046.81;4879545;29;19931;-56
2021/10/27 01:18:59;;;;;;;;;;;;;;;12.75;100.00;102056.78;4877408;29;20328;-53
2021/10/27 01:21:26;;;;;;;;;;;;;;;12.77;100.00;102063.69;4877516;29;19931;-53
2021/10/27 01:23:53;;;;;;;;;;;;;;;12.80;100.00;102045.06;4862258;29;19932;-53
2021/10/27 01:26:20;;;;;;;;;;;;;;;12.83;100.00;102051.97;4878428;29;19976;-46
2021/10/27 01:28:46;;;;;;;;;;;;;;;12.86;100.00;102051.78;4859403;29;19999;-43
2021/10/27 01:31:13;;;;;;;;;;;;;;;12.84;100.00;102046.59;4876095;29;19931;-44
2021/10/27 01:33:41;;;;;;;;;;;;;;;12.85;100.00;102044.78;4862917;29;19983;-53
2021/10/27 01:36:08;;;;;;;;;;;;;;;12.95;100.00;102039.84;4878919;29;19939;-48
2021/10/27 01:38:35;;;;;;;;;;;;;;;12.88;100.00;102049.06;4875639;29;19928;-48
2021/10/27 01:41:03;;;;;;;;;;;;;;;12.91;100.00;102040.94;4877427;29;19967;-53
2021/10/27 01:43:29;;;;;;;;;;;;;;;12.84;100.00;102043.94;4879288;29;19956;-51
2021/10/27 01:45:56;;;;;;;;;;;;;;;12.85;100.00;102042.16;4879591;29;20138;-55
2021/10/27 01:48:23;;;;;;;;;;;;;;;12.89;100.00;102041.03;4878714;29;19937;-55
2021/10/27 01:50:49;;;;;;;;;;;;;;;12.88;100.00;102034.06;4860242;29;19976;-53
2021/10/27 01:53:16;;;;;;;;;;;;;;;12.86;100.00;102038.59;4876917;29;19943;-54
2021/10/27 01:55:42;;;;;;;;;;;;;;;12.87;100.00;102039.41;4878667;29;19927;-56
2021/10/27 01:58:09;;;;;;;;;;;;;;;12.95;100.00;102042.47;4876130;29;19940;-54
2021/10/27 02:00:36;;;;;;;;;;;;;;;12.89;100.00;102041.03;4858929;29;19984;-55
2021/10/27 02:03:03;;;;;;;;;;;;;;;12.84;100.00;102040.44;4879403;29;19928;-46
2021/10/27 02:05:29;;;;;;;;;;;;;;;12.85;100.00;102039.50;4877832;29;19931;-47
2021/10/27 02:07:56;;;;;;;;;;;;;;;12.82;100.00;102039.69;4876713;29;19956;-48
2021/10/27 02:10:22;;;;;;;;;;;;;;;12.87;100.00;102042.06;4878186;29;19927;-51
2021/10/27 02:12:49;;;;;;;;;;;;;;;12.84;100.00;102043.06;4878556;29;19942;-46
2021/10/27 02:15:16;;;;;;;;;;;;;;;12.89;100.00;102040.19;4877779;29;20387;-50
2021/10/27 02:17:42;;;;;;;;;;;;;;;12.86;100.00;102035.94;4876526;29;19932;-44
2021/10/27 02:20:09;;;;;;;;;;;;;;;12.87;100.00;102037.66;4876883;29;20010;-51
2021/10/27 02:22:36;;;;;;;;;;;;;;;12.90;100.00;102042.75;4876023;29;20018;-48
2021/10/27 02:25:03;;;;;;;;;;;;;;;12.89;100.00;102046.31;4861880;29;19931;-46
2021/10/27 02:27:29;;;;;;;;;;;;;;;12.89;100.00;102045.47;4874016;29;19951;-49
2021/10/27 02:29:56;;;;;;;;;;;;;;;12.82;100.00;102035.25;4874808;29;20075;-49
2021/10/27 02:32:23;;;;;;;;;;;;;;;12.92;100.00;102032.09;4860215;29;19928;-49
2021/10/27 02:34:49;;;;;;;;;;;;;;;12.92;100.00;102035.56;4877134;29;19928;-47
2021/10/27 02:37:16;;;;;;;;;;;;;;;12.88;100.00;102039.31;4876569;29;19991;-46
2021/10/27 02:39:43;;;;;;;;;;;;;;;12.87;100.00;102023.59;4875728;29;20317;-46
2021/10/27 02:42:09;;;;;;;;;;;;;;;12.88;100.00;102027.94;4876020;29;19931;-46
2021/10/27 02:44:36;;;;;;;;;;;;;;;12.90;100.00;102032.19;4875374;29;19984;-45
2021/10/27 02:47:03;;;;;;;;;;;;;;;12.94;100.00;102028.44;4858894;29;19981;-47
2021/10/27 02:49:30;;;;;;;;;;;;;;;12.91;100.00;102030.38;4875980;29;19928;-48
2021/10/27 02:51:56;;;;;;;;;;;;;;;12.90;100.00;102024.28;4874829;29;19928;-48
2021/10/27 02:54:23;;;;;;;;;;;;;;;12.95;100.00;102024.88;4878144;29;19928;-46
2021/10/27 02:56:50;;;;;;;;;;;;;;;12.92;100.00;102027.66;4878903;29;19928;-53
2021/10/27 02:59:17;;;;;;;;;;;;;;;12.92;100.00;102032.94;4878982;29;19928;-45
2021/10/27 03:01:43;;;;;;;;;;;;;;;12.93;100.00;102026.72;4877708;29;19976;-44
2021/10/27 03:04:10;;;;;;;;;;;;;;;12.94;100.00;102031.06;4878710;29;20606;-45
2021/10/27 03:06:37;;;;;;;;;;;;;;;12.98;100.00;102034.41;4878794;29;19976;-46
2021/10/27 03:09:03;;;;;;;;;;;;;;;13.01;100.00;102034.22;4861335;29;19928;-46
2021/10/27 03:11:30;;;;;;;;;;;;;;;13.01;100.00;102037.72;4875426;29;19928;-43
2021/10/27 03:13:57;;;;;;;;;;;;;;;13.00;100.00;102038.63;4875099;29;19960;-47
2021/10/27 03:16:23;;;;;;;;;;;;;;;12.96;100.00;102037.09;4873959;29;19957;-47
2021/10/27 03:18:50;;;;;;;;;;;;;;;12.95;100.00;102046.00;4875891;29;19947;-49
2021/10/27 03:21:17;;;;;;;;;;;;;;;12.94;100.00;102044.28;4860985;29;19928;-45
2021/10/27 03:23:43;;;;;;;;;;;;;;;12.95;100.00;102040.72;4880171;29;19976;-46
2021/10/27 03:26:10;;;;;;;;;;;;;;;12.99;100.00;102039.59;4881720;29;19928;-47
2021/10/27 03:28:37;;;;;;;;;;;;;;;12.93;100.00;102039.94;4849527;29;19928;-45
2021/10/27 03:31:04;;;;;;;;;;;;;;;12.95;100.00;102039.84;4881480;29;19928;-44
2021/10/27 03:33:30;;;;;;;;;;;;;;;12.96;100.00;102041.56;4882378;29;20404;-45
2021/10/27 03:35:57;;;;;;;;;;;;;;;12.94;100.00;102038.13;4865167;29;19928;-44
2021/10/27 03:38:24;;;;;;;;;;;;;;;12.96;100.00;102045.03;4879237;29;19980;-45
2021/10/27 03:40:50;;;;;;;;;;;;;;;12.98;100.00;102045.81;4862997;29;20399;-48
2021/10/27 03:43:19;;;;;;;;;;;;;;;13.01;100.00;102044.78;4876967;29;19932;-48
2021/10/27 03:45:45;;;;;;;;;;;;;;;13.04;100.00;102046.41;4878597;29;19931;-47
2021/10/27 03:48:12;;;;;;;;;;;;;;;12.94;100.00;102043.41;4864483;29;19928;-47
2021/10/27 03:50:40;;;;;;;;;;;;;;;12.93;100.00;102045.22;4878426;29;19936;-46
2021/10/27 03:53:07;;;;;;;;;;;;;;;12.97;100.00;102041.47;4878293;29;19985;-55
2021/10/27 03:55:33;;;;;;;;;;;;;;;12.95;100.00;102048.63;4881949;29;19928;-54
2021/10/27 03:58:01;;;;;;;;;;;;;;;12.95;100.00;102043.34;4881748;29;19984;-54
2021/10/27 04:00:27;;;;;;;;;;;;;;;12.91;100.00;102044.47;4862693;29;19932;-43
2021/10/27 04:02:54;;;;;;;;;;;;;;;12.93;100.00;102047.00;4878627;29;19944;-45
2021/10/27 04:05:21;;;;;;;;;;;;;;;12.92;100.00;102051.41;4878899;29;20027;-54
2021/10/27 04:07:48;;;;;;;;;;;;;;;12.91;100.00;102047.09;4881488;29;19927;-55
2021/10/27 04:10:15;;;;;;;;;;;;;;;12.97;100.00;102048.53;4880111;29;19928;-54
2021/10/27 04:12:41;;;;;;;;;;;;;;;12.97;100.00;102044.09;4880164;29;19928;-53
2021/10/27 04:15:09;;;;;;;;;;;;;;;13.00;100.00;102038.63;4884168;29;19931;-43
2021/10/27 04:17:35;;;;;;;;;;;;;;;13.05;100.00;102045.44;4876824;29;20292;-47
2021/10/27 04:20:04;;;;;;;;;;;;;;;13.00;100.00;102049.19;4872417;29;20001;-46
2021/10/27 04:22:34;;;;;;;;;;;;;;;13.02;100.00;102051.78;4885536;29;19936;-46
2021/10/27 04:25:01;;;;;;;;;;;;;;;13.05;100.00;102046.31;4886052;29;20322;-46
2021/10/27 04:27:28;;;;;;;;;;;;;;;12.97;100.00;102044.09;4868064;29;20034;-44
2021/10/27 04:29:55;;;;;;;;;;;;;;;12.98;100.00;102044.97;4879695;29;19928;-47
2021/10/27 04:32:22;;;;;;;;;;;;;;;13.05;100.00;102050.72;4877207;29;20348;-47
2021/10/27 04:34:48;;;;;;;;;;;;;;;13.04;100.00;102049.88;4876009;29;19935;-54
2021/10/27 04:37:16;;;;;;;;;;;;;;;12.96;100.00;102046.84;4879823;29;19928;-53
2021/10/27 04:39:42;;;;;;;;;;;;;;;12.92;100.00;102048.78;4887222;29;19928;-50
2021/10/27 04:42:09;;;;;;;;;;;;;;;12.92;100.00;102056.69;4879631;29;19928;-52
2021/10/27 04:44:36;;;;;;;;;;;;;;;12.96;100.00;102052.94;4879345;29;19927;-47
2021/10/27 04:47:03;;;;;;;;;;;;;;;12.95;100.00;102056.56;4872066;29;19963;-45
2021/10/27 04:49:31;;;;;;;;;;;;;;;12.94;100.00;102060.13;4876105;29;19932;-54
2021/10/27 04:51:57;;;;;;;;;;;;;;;12.96;100.00;102068.78;4876054;29;19992;-54
2021/10/27 04:54:25;;;;;;;;;;;;;;;12.97;100.00;102073.16;4875769;29;20293;-54
2021/10/27 04:56:51;;;;;;;;;;;;;;;13.03;100.00;102066.66;4878255;29;19931;-52
2021/10/27 04:59:18;;;;;;;;;;;;;;;12.99;100.00;102067.78;4875783;29;19932;-55
2021/10/27 05:01:48;;;;;;;;;;;;;;;13.02;100.00;102059.69;4875534;29;20982;-52
2021/10/27 05:04:15;;;;;;;;;;;;;;;13.01;100.00;102060.63;4877447;29;19984;-45
2021/10/27 05:06:42;;;;;;;;;;;;;;;13.00;100.00;102061.56;4879466;29;20022;-46
2021/10/27 05:09:09;;;;;;;;;;;;;;;12.96;100.00;102070.59;4879100;29;19935;-45
2021/10/27 05:11:36;;;;;;;;;;;;;;;12.93;100.00;102071.63;4876914;29;19927;-47
2021/10/27 05:14:03;;;;;;;;;;;;;;;12.95;100.00;102067.13;4883193;29;19955;-54
2021/10/27 05:16:29;;;;;;;;;;;;;;;12.93;100.00;102062.84;4878568;29;20058;-46
2021/10/27 05:18:56;;;;;;;;;;;;;;;12.94;100.00;102061.88;4876397;29;20323;-44
2021/10/27 05:21:22;;;;;;;;;;;;;;;12.98;100.00;102066.94;4877647;29;19927;-48
2021/10/27 05:23:49;;;;;;;;;;;;;;;12.98;100.00;102066.09;4884104;29;19939;-46
2021/10/27 05:26:16;;;;;;;;;;;;;;;12.97;100.00;102061.75;4878527;29;19928;-55
2021/10/27 05:28:42;;;;;;;;;;;;;;;13.05;100.00;102063.94;4876940;29;20011;-55
2021/10/27 05:31:10;;;;;;;;;;;;;;;12.96;100.00;102060.88;4880907;29;19928;-44
2021/10/27 05:33:37;;;;;;;;;;;;;;;12.93;100.00;102061.06;4878156;29;19962;-45
2021/10/27 05:36:03;;;;;;;;;;;;;;;12.97;100.00;102065.22;4882153;29;19931;-45
2021/10/27 05:38:30;;;;;;;;;;;;;;;12.94;100.00;102064.53;4883896;29;19931;-45
2021/10/27 05:40:57;;;;;;;;;;;;;;;12.92;100.00;102067.25;4875969;29;19928;-45
2021/10/27 05:43:25;;;;;;;;;;;;;;;12.95;100.00;102061.84;4872931;29;19928;-56
2021/10/27 05:45:55;;;;;;;;;;;;;;;12.93;100.00;102066.34;4875351;29;19932;-50
2021/10/27 05:48:25;;;;;;;;;;;;;;;12.91;100.00;102062.94;4877514;29;19928;-56
2021/10/27 05:56:20;;;;;;;;;;;;;;;12.93;100.00;102079.53;4897692;29;20039;-56
2021/10/27 05:58:47;;;;;;;;;;;;;;;12.97;100.00;102072.31;4897551;29;19981;-55
2021/10/27 06:01:14;;;;;;;;;;;;;;;12.94;100.00;102073.31;4895950;29;20049;-52
2021/10/27 06:03:42;;;;;;;;;;;;;;;12.92;100.00;102083.09;4878428;29;20304;-56
2021/10/27 06:06:10;;;;;;;;;;;;;;;12.89;100.00;102077.16;4865012;29;19928;-55
2021/10/27 06:08:37;;;;;;;;;;;;;;;13.00;100.00;102080.06;4878802;29;19982;-52
2021/10/27 06:11:13;;;;;;;;;;;;;;;12.91;100.00;102081.44;4895014;29;20034;-56
2021/10/27 06:13:46;;;;;;;;;;;;;;;12.89;100.00;102091.22;4877431;29;19939;-52
2021/10/27 06:16:13;;;;;;;;;;;;;;;12.81;100.00;102086.34;4894192;29;19927;-53
2021/10/27 06:18:40;;;;;;;;;;;;;;;12.85;100.00;102092.31;4893998;29;20368;-53
2021/10/27 06:21:08;;;;;;;;;;;;;;;12.85;100.00;102087.03;4878718;29;19931;-53
2021/10/27 06:23:35;;;;;;;;;;;;;;;12.84;100.00;102087.97;4894937;29;19931;-54
2021/10/27 06:26:03;;;;;;;;;;;;;;;12.94;100.00;102088.28;4895496;29;19931;-52
2021/10/27 06:28:33;;;;;;;;;;;;;;;12.94;99.81;102086.53;4893756;29;19935;-51
2021/10/27 06:33:47;;;;;;;;;;;;;;;12.84;100.00;102099.38;4897600;29;19936;-54
2021/10/27 06:46:42;;;;;;;;;;;;;;;12.87;99.81;102108.94;4893452;29;19976;-47
2021/10/27 06:49:09;;;;;;;;;;;;;;;12.86;100.00;102109.88;4895039;29;19931;-53
2021/10/27 06:51:36;;;;;;;;;;;;;;;12.83;99.97;102113.53;4893689;29;20348;-55
2021/10/27 06:54:03;;;;;;;;;;;;;;;12.88;99.58;102109.78;4895041;29;19927;-54
2021/10/27 06:56:30;;;;;;;;;;;;;;;12.87;99.76;102122.13;4898231;29;19995;-54
2021/10/27 06:59:20;;;;;;;;;;;;;;;12.84;99.81;102124.91;4882838;29;19932;-45
2021/10/27 07:17:22;;;;;;;;;;;;;;;12.87;99.25;102132.69;4900995;29;19928;-44
2021/10/27 07:19:48;;;;;;;;;;;;;;;12.87;99.22;102137.09;4898912;29;19932;-52
2021/10/27 07:22:15;;;;;;;;;;;;;;;12.80;99.66;102141.84;4898351;29;19938;-53
2021/10/27 07:24:43;;;;;;;;;;;;;;;12.81;99.76;102140.94;4882823;29;19928;-54
2021/10/27 07:27:11;;;;;;;;;;;;;;;12.90;99.36;102145.72;4900820;29;19959;-55
2021/10/27 07:29:38;;;;;;;;;;;;;;;12.94;98.92;102154.31;4896676;29;19932;-49
2021/10/27 07:32:07;;;;;;;;;;;;;;;12.99;98.80;102153.16;4881701;29;19934;-46
2021/10/27 07:34:56;;;;;;;;;;;;;;;12.99;98.90;102163.72;4899749;29;19928;-47
2021/10/27 07:43:02;;;;;;;;;;;;;;;13.00;99.34;102175.13;4883445;29;19932;-45
2021/10/27 07:45:31;;;;;;;;;;;;;;;12.98;98.62;102175.19;4898929;29;19927;-46
2021/10/27 07:47:58;;;;;;;;;;;;;;;13.14;98.27;102180.50;4900425;29;19970;-46
2021/10/27 07:50:27;;;;;;;;;;;;;;;12.99;98.38;102181.31;4881386;29;20380;-46
2021/10/27 07:52:54;;;;;;;;;;;;;;;12.97;98.90;102183.22;4881962;29;20459;-46
2021/10/27 07:55:21;;;;;;;;;;;;;;;13.00;98.54;102183.03;4882715;29;19927;-56
2021/10/27 07:57:47;;;;;;;;;;;;;;;13.00;98.73;102185.69;4880285;29;19934;-55
2021/10/27 08:00:17;;;;;;;;;;;;;;;13.03;97.92;102188.13;4899079;29;19932;-52
2021/10/27 08:02:44;;;;;;;;;;;;;;;13.01;98.53;102196.16;4898212;29;19971;-54
2021/10/27 08:05:12;;;;;;;;;;;;;;;13.08;98.22;102191.38;4880742;29;20359;-53
2021/10/27 08:07:43;;;;;;;;;;;;;;;13.11;97.21;102188.56;4879734;29;20284;-50
2021/10/27 08:10:09;;;;;;;;;;;;;;;13.15;97.21;102202.47;4878299;29;19932;-46
2021/10/27 08:12:36;;;;;;;;;;;;;;;13.11;97.56;102199.13;4896135;29;20311;-45
2021/10/27 08:15:03;;;;;;;;;;;;;;;13.18;96.88;102195.25;4895997;29;19939;-44
2021/10/27 08:17:30;;;;;;;;;;;;;;;13.30;96.93;102192.88;4882862;29;20384;-55
2021/10/27 08:19:56;;;;;;;;;;;;;;;13.54;96.62;102195.97;4882469;29;19932;-55
2021/10/27 08:22:23;;;;;;;;;;;;;;;13.66;95.52;102189.97;4897641;29;19935;-56
2021/10/27 08:24:52;;;;;;;;;;;;;;;14.08;94.74;102194.66;4897738;29;19931;-53
2021/10/27 08:27:30;;;;;;;;;;;;;;;14.13;93.73;102198.75;4897443;29;19927;-45
2021/10/27 08:30:02;;;;;;;;;;;;;;;14.25;92.74;102194.53;4878828;29;19932;-51
2021/10/27 08:32:40;;;;;;;;;;;;;;;14.25;91.86;102197.16;4899188;29;20022;-50
2021/10/27 08:35:08;;;;;;;;;;;;;;;14.59;91.59;102205.72;4896560;29;19938;-54
2021/10/27 08:37:34;;;;;;;;;;;;;;;14.78;89.50;102202.84;4896522;29;19932;-53
2021/10/27 08:40:01;;;;;;;;;;;;;;;14.65;89.77;102208.03;4898409;29;19928;-55
2021/10/27 08:42:28;;;;;;;;;;;;;;;14.95;89.45;102203.59;4899750;29;20443;-52
2021/10/27 08:44:54;;;;;;;;;;;;;;;14.81;89.67;102196.50;4882778;29;19931;-55
2021/10/27 08:47:22;;;;;;;;;;;;;;;14.72;89.88;102197.06;4898690;29;19927;-52
2021/10/27 08:49:48;;;;;;;;;;;;;;;14.79;88.90;102203.69;4895887;29;19948;-55
2021/10/27 08:52:15;;;;;;;;;;;;;;;14.82;89.13;102200.84;4896684;29;19928;-53
2021/10/27 08:54:42;;;;;;;;;;;;;;;14.63;88.85;102202.00;4894390;29;19984;-53
2021/10/27 08:57:10;;;;;;;;;;;;;;;14.65;89.03;102204.53;4878686;29;19928;-53
2021/10/27 09:05:00;;;;;;;;;;;;;;;14.66;89.35;102212.38;4882821;29;19931;-52
2021/10/27 09:07:58;;;;;;;;;;;;;;;14.70;88.65;102219.19;4898138;29;19955;-51
2021/10/27 10:06:00;;;;;;;;;;;;;;;18.08;72.97;102191.97;4883705;29;19950;-46
2021/10/27 10:08:27;;;;;;;;;;;;;;;18.40;71.77;102189.47;4896514;29;20359;-45
2021/10/27 10:10:53;;;;;;;;;;;;;;;18.88;70.10;102198.28;4897916;29;19931;-47
2021/10/27 10:13:21;;;;;;;;;;;;;;;18.98;69.27;102191.25;4879766;29;19938;-47
2021/10/27 10:15:48;;;;;;;;;;;;;;;19.42;68.41;102191.28;4893896;29;19927;-49
2021/10/27 10:18:15;;;;;;;;;;;;;;;19.07;69.06;102190.53;4895627;29;19971;-52
2021/10/27 10:20:41;;;;;;;;;;;;;;;19.15;68.13;102184.56;4863012;29;19936;-53
2021/10/27 10:23:21;;;;;;;;;;;;;;;19.22;67.77;102187.56;4880746;29;19927;-53
2021/10/27 10:25:49;;;;;;;;;;;;;;;18.95;68.69;102185.31;4897424;29;20414;-53
2021/10/27 10:28:20;;;;;;;;;;;;;;;19.16;68.12;102191.59;4895640;29;19932;-53
2021/10/27 10:30:53;;;;;;;;;;;;;;;19.72;66.57;102200.41;4893435;29;19931;-53
2021/10/27 10:33:20;;;;;;;;;;;;;;;20.41;65.46;102197.28;4882196;29;19934;-52
2021/10/27 10:36:04;;;;;;;;;;;;;;;20.33;63.75;102185.56;4879934;29;19952;-55
2021/10/27 10:41:28;;;;;;;;;;;;;;;20.36;63.88;102202.16;4897164;29;20333;-49
2021/10/27 11:39:32;;;;;;;;;;;;;;;18.61;68.13;102195.94;4882538;29;19979;-55
2021/10/27 11:42:15;;;;;;;;;;;;;;;18.53;68.00;102196.56;4897402;29;19983;-55
2021/10/27 11:44:51;;;;;;;;;;;;;;;18.47;68.63;102194.34;4882821;29;20443;-55
2021/10/27 11:47:35;;;;;;;;;;;;;;;18.51;67.78;102187.81;4882473;29;20304;-55
2021/10/27 11:50:03;;;;;;;;;;;;;;;18.35;67.98;102189.00;4881041;29;19987;-55
2021/10/27 11:52:31;;;;;;;;;;;;;;;18.11;69.52;102185.56;4900457;29;19927;-54
2021/10/27 11:54:59;;;;;;;;;;;;;;;18.22;68.36;102182.94;4900308;29;19934;-53
2021/10/27 11:57:29;;;;;;;;;;;;;;;18.14;68.99;102186.16;4900321;29;19980;-54
2021/10/27 11:59:56;;;;;;;;;;;;;;;18.01;68.87;102177.41;4900534;29;19936;-55
2021/10/27 12:02:24;;;;;;;;;;;;;;;17.98;69.47;102175.00;4883661;29;19933;-54
2021/10/27 12:04:51;;;;;;;;;;;;;;;17.85;70.35;102175.06;4883614;29;19931;-55
2021/10/27 12:07:55;;;;;;;;;;;;;;;17.92;70.13;102171.00;4883247;29;20640;-55
2021/10/27 12:10:29;;;;;;;;;;;;;;;17.76;69.71;102170.41;4893212;29;20664;-55
2021/10/27 12:13:01;;;;;;;;;;;;;;;17.78;70.35;102160.50;4896121;29;19928;-55
2021/10/27 12:18:10;;;;;;;;;;;;;;;17.79;71.14;102156.88;4900189;29;20125;-56
2021/10/27 12:20:41;;;;;;;;;;;;;;;17.85;70.84;102153.78;4880863;29;19934;-55
2021/10/27 12:23:24;;;;;;;;;;;;;;;17.87;69.76;102152.69;4897105;29;20399;-54
2021/10/27 12:25:53;;;;;;;;;;;;;;;17.83;70.14;102143.25;4898542;29;19927;-46
2021/10/27 12:28:24;;;;;;;;;;;;;;;17.73;70.99;102139.56;4899635;29;19934;-56
2021/10/27 12:30:51;;;;;;;;;;;;;;;17.78;70.46;102137.41;4867215;29;19928;-54
2021/10/27 12:33:17;;;;;;;;;;;;;;;17.82;70.29;102132.69;4881125;29;19927;-56
2021/10/27 12:35:44;;;;;;;;;;;;;;;17.98;69.76;102135.06;4880318;29;19938;-56
2021/10/27 12:38:32;;;;;;;;;;;;;;;17.96;70.01;102129.03;4882163;29;19930;-55
2021/10/27 12:41:11;;;;;;;;;;;;;;;18.12;68.77;102131.34;4882132;29;19979;-56
2021/10/27 12:43:42;;;;;;;;;;;;;;;18.12;69.06;102126.03;4899721;29;20423;-55
2021/10/27 12:46:21;;;;;;;;;;;;;;;18.04;68.78;102129.28;4892492;29;19932;-55
2021/10/27 12:48:48;;;;;;;;;;;;;;;17.97;69.21;102123.59;4895703;29;19977;-55
2021/10/27 12:51:14;;;;;;;;;;;;;;;17.94;68.77;102118.47;4896549;29;19970;-56
2021/10/27 12:53:45;;;;;;;;;;;;;;;17.91;70.05;102108.03;4878836;29;20458;-53
2021/10/27 12:56:23;;;;;;;;;;;;;;;17.88;69.37;102105.63;4896096;29;19927;-55
2021/10/27 12:59:02;;;;;;;;;;;;;;;18.07;69.18;102099.78;4894946;29;19934;-45
2021/10/27 13:11:37;;;;;;;;;;;;;;;17.79;69.35;102101.00;4898878;29;19934;-55
2021/10/27 13:30:21;;;;;;;;;;;;;;;17.58;70.20;102088.38;4897789;29;19927;-54
2021/10/27 13:32:53;;;;;;;;;;;;;;;17.56;70.07;102082.31;4898592;29;19928;-54
2021/10/27 13:35:25;;;;;;;;;;;;;;;17.66;69.70;102080.66;4897534;29;19931;-54
2021/10/27 13:37:52;;;;;;;;;;;;;;;17.40;69.68;102080.81;4895206;29;19971;-54
2021/10/27 13:40:18;;;;;;;;;;;;;;;17.36;70.57;102079.34;4897438;29;20291;-48
2021/10/27 13:42:57;;;;;;;;;;;;;;;17.54;69.59;102076.28;4898341;29;20579;-46
2021/10/27 13:59:17;;;;;;;;;;;;;;;17.22;69.18;102082.19;4898150;29;20406;-50
2021/10/27 14:09:55;;;;;;;;;;;;;;;17.15;70.50;102079.13;4894565;29;19935;-52
2021/10/27 14:12:37;;;;;;;;;;;;;;;17.06;69.41;102077.97;4894648;29;19932;-53
2021/10/27 14:39:48;;;;;;;;;;;;;;;16.55;71.86;102067.47;4894713;29;19938;-45
2021/10/27 14:59:07;;;;;;;;;;;;;;;16.21;73.95;102060.09;4895025;29;20418;-46
2021/10/27 15:19:37;;;;;;;;;;;;;;;15.89;75.85;102057.84;4897495;29;19931;-55
2021/10/27 15:21:30;;;;;;;;;;;;;;;15.89;76.32;102052.56;4886559;29;19935;-55
2021/10/27 15:29:05;;;;;;;;;;;;;;;15.65;77.34;102055.06;4897252;29;19927;-47
2021/10/27 15:31:54;;;;;;;;;;;;;;;15.62;77.64;102046.47;4897167;29;19931;-45
2021/10/27 15:34:36;;;;;;;;;;;;;;;15.58;77.50;102043.16;4900784;29;20261;-45
2021/10/27 15:50:37;;;;;;;;;;;;;;;15.07;80.18;102041.22;4882517;29;19928;-48
2021/10/27 15:53:04;;;;;;;;;;;;;;;15.04;80.45;102041.44;4880277;29;19927;-45
2021/10/27 15:55:30;;;;;;;;;;;;;;;14.99;80.73;102047.00;4877390;29;19963;-47
2021/10/27 15:57:57;;;;;;;;;;;;;;;14.93;80.80;102050.06;4881195;29;19935;-44
2021/10/27 16:00:24;;;;;;;;;;;;;;;14.85;81.34;102041.78;4881565;29;20684;-46
2021/10/27 16:02:51;;;;;;;;;;;;;;;14.81;81.52;102045.56;4862310;29;19927;-45
2021/10/27 16:05:18;;;;;;;;;;;;;;;14.70;82.11;102044.44;4878314;29;19956;-46
2021/10/27 16:07:47;;;;;;;;;;;;;;;14.51;83.37;102046.53;4879692;29;20038;-45
2021/10/27 16:10:16;;;;;;;;;;;;;;;14.52;82.94;102043.78;4881540;29;20273;-50
2021/10/27 16:12:43;;;;;;;;;;;;;;;14.48;83.51;102049.34;4881210;29;19928;-45
2021/10/27 16:15:20;;;;;;;;;;;;;;;14.42;83.26;102047.94;4876615;29;19967;-45
2021/10/27 16:17:46;;;;;;;;;;;;;;;14.34;83.82;102050.22;4878184;29;19943;-50
2021/10/27 16:20:13;;;;;;;;;;;;;;;14.28;84.11;102051.44;4878387;29;19938;-43
2021/10/27 16:22:39;;;;;;;;;;;;;;;14.26;83.84;102049.84;4880405;29;19984;-46
2021/10/27 16:25:09;;;;;;;;;;;;;;;14.20;83.86;102051.06;4864633;29;19932;-46
2021/10/27 16:27:36;;;;;;;;;;;;;;;14.13;84.29;102055.06;4880037;29;19956;-44
2021/10/27 16:30:05;;;;;;;;;;;;;;;13.99;85.36;102055.91;4876246;29;19931;-52
2021/10/27 16:32:32;;;;;;;;;;;;;;;13.98;85.35;102048.91;4862064;29;19928;-49
2021/10/27 16:34:59;;;;;;;;;;;;;;;13.92;85.71;102054.53;4862263;29;20015;-50
2021/10/27 16:37:26;;;;;;;;;;;;;;;13.86;85.72;102048.69;4877538;29;19935;-54
2021/10/27 16:39:53;;;;;;;;;;;;;;;13.77;86.35;102046.59;4879407;29;19935;-55
2021/10/27 16:42:20;;;;;;;;;;;;;;;13.73;87.01;102041.56;4864323;29;19987;-51
2021/10/27 16:44:46;;;;;;;;;;;;;;;13.69;87.23;102035.63;4864526;29;19936;-44
2021/10/27 16:47:13;;;;;;;;;;;;;;;13.61;87.57;102036.06;4879537;29;19934;-52
2021/10/27 16:49:40;;;;;;;;;;;;;;;13.57;87.70;102042.50;4864098;29;19935;-51
2021/10/27 16:52:06;;;;;;;;;;;;;;;13.48;88.12;102043.88;4879649;29;19931;-48
2021/10/27 16:54:33;;;;;;;;;;;;;;;13.37;88.74;102037.53;4880574;29;19976;-47
2021/10/27 16:56:59;;;;;;;;;;;;;;;13.34;88.79;102041.16;4878413;29;19935;-45
2021/10/27 16:59:26;;;;;;;;;;;;;;;13.30;89.07;102042.28;4876700;29;19936;-49
2021/10/27 17:01:53;;;;;;;;;;;;;;;13.24;89.23;102040.84;4877258;29;20414;-54
2021/10/27 17:04:21;;;;;;;;;;;;;;;13.16;89.74;102035.16;4880617;29;19975;-52
2021/10/27 17:06:48;;;;;;;;;;;;;;;13.13;89.83;102043.22;4877700;29;19928;-53
2021/10/27 17:09:15;;;;;;;;;;;;;;;13.13;89.90;102041.44;4877421;29;19983;-53
2021/10/27 17:11:42;;;;;;;;;;;;;;;13.08;90.05;102042.66;4876328;29;19932;-52
2021/10/27 17:14:09;;;;;;;;;;;;;;;13.00;90.54;102040.44;4878151;29;19928;-51
2021/10/27 17:16:36;;;;;;;;;;;;;;;12.95;90.80;102046.00;4878509;29;19938;-52
2021/10/27 17:19:03;;;;;;;;;;;;;;;12.94;90.88;102044.28;4877264;29;19935;-52
2021/10/27 17:21:30;;;;;;;;;;;;;;;12.98;90.57;102042.34;4876787;29;19931;-50
2021/10/27 17:24:00;;;;;;;;;;;;;;;12.84;91.47;102043.06;4875939;29;19960;-53